Accueil
METAR-TAF:

METAR-TAF

Aéroports :

Laupheim, Allemagne

latitude: 48-13N, longitude: 009-55E, altitude: 538 m

Observation

Le bulletin a été fait il y a 59 minutes, à 08:20 UTC
Vent 3 kt de nord
Température 15°C
Humidité 82%
Pression 1021 hPa
Visibilité: 7000 m

METAR: ETHL 190820Z AUTO 35003KT 7000 // ////// 15/12 Q1021 ///

Heure: 11:19 (09:19 UTC)

Prévision

Le bulletin a été fait il y a 1 minutes, à 09:18 UTC
Prévision valable du 18 à 08 UTC au 18 à 17 UTC
Vent 7 kt de sud-ouest
Visibilité: 1000 m
Quelques nuages à une hauteur de 4000 ft
Nuages épars à une hauteur de 12000 ft
Nuages fragmentés à une hauteur de 22000 ft

TAF: ETHL 180918Z 1808/1817 23007KT 9999 NSW FEW040 SCT120 BKN220 CANCEL 1000

Observations et prévisions météorologiques de plus de 4000 aéroports (messages METAR et TAF).

Les stations disponibles sont représentées par des disques jaunes et rouges sur la carte.

Passer la souris dessus pour voir le nom de la station.

Cliquer dessus pour voir les observations et prévisions météorologiques.

Pour changer de carte: cliquez sur les boutons verts avec une croix noire pour zoomer, sur le bouton vert avec un tiret pour effectuer un zoom arrière, ou sur les flèches vertes pour les cartes adjacentes.


METAR-TAF: